sensor_id;sensor_type;location;lat;lon;timestamp;P1;durP1;ratioP1;P2;durP2;ratioP2
23466;SDS011;59740;47.696;11.746;2023-12-28T00:00:44;1.52;;;0.70;;
23466;SDS011;59740;47.696;11.746;2023-12-28T00:03:13;2.78;;;0.80;;
23466;SDS011;59740;47.696;11.746;2023-12-28T00:05:43;1.70;;;0.80;;
23466;SDS011;59740;47.696;11.746;2023-12-28T00:08:12;1.23;;;0.63;;
23466;SDS011;59740;47.696;11.746;2023-12-28T00:10:40;1.55;;;0.90;;
23466;SDS011;59740;47.696;11.746;2023-12-28T00:13:09;2.03;;;0.80;;
23466;SDS011;59740;47.696;11.746;2023-12-28T00:15:37;2.22;;;1.00;;
23466;SDS011;59740;47.696;11.746;2023-12-28T00:18:08;1.90;;;0.80;;
23466;SDS011;59740;47.696;11.746;2023-12-28T00:20:37;4.28;;;1.00;;
23466;SDS011;59740;47.696;11.746;2023-12-28T00:23:07;1.55;;;0.80;;
23466;SDS011;59740;47.696;11.746;2023-12-28T00:25:35;2.08;;;0.90;;
23466;SDS011;59740;47.696;11.746;2023-12-28T00:28:04;3.33;;;0.80;;
23466;SDS011;59740;47.696;11.746;2023-12-28T00:30:32;1.45;;;0.70;;
23466;SDS011;59740;47.696;11.746;2023-12-28T00:33:01;2.00;;;0.90;;
23466;SDS011;59740;47.696;11.746;2023-12-28T00:35:30;2.53;;;0.90;;
23466;SDS011;59740;47.696;11.746;2023-12-28T00:37:58;3.10;;;1.02;;
23466;SDS011;59740;47.696;11.746;2023-12-28T00:40:29;3.47;;;1.23;;
23466;SDS011;59740;47.696;11.746;2023-12-28T00:42:57;2.33;;;1.00;;
23466;SDS011;59740;47.696;11.746;2023-12-28T00:45:26;2.55;;;1.05;;
23466;SDS011;59740;47.696;11.746;2023-12-28T00:47:54;2.45;;;1.23;;
23466;SDS011;59740;47.696;11.746;2023-12-28T00:50:24;2.90;;;1.10;;
23466;SDS011;59740;47.696;11.746;2023-12-28T00:52:54;1.27;;;0.80;;
23466;SDS011;59740;47.696;11.746;2023-12-28T00:55:22;1.20;;;0.68;;
23466;SDS011;59740;47.696;11.746;2023-12-28T00:57:53;2.25;;;0.80;;
23466;SDS011;59740;47.696;11.746;2023-12-28T01:00:21;3.10;;;0.75;;
23466;SDS011;59740;47.696;11.746;2023-12-28T01:02:50;1.33;;;0.77;;
23466;SDS011;59740;47.696;11.746;2023-12-28T01:05:18;2.72;;;0.80;;
23466;SDS011;59740;47.696;11.746;2023-12-28T01:07:47;1.55;;;0.70;;
23466;SDS011;59740;47.696;11.746;2023-12-28T01:10:19;2.22;;;0.60;;
23466;SDS011;59740;47.696;11.746;2023-12-28T01:12:47;2.47;;;0.90;;
23466;SDS011;59740;47.696;11.746;2023-12-28T01:15:17;1.23;;;0.68;;
23466;SDS011;59740;47.696;11.746;2023-12-28T01:17:47;1.33;;;0.70;;
23466;SDS011;59740;47.696;11.746;2023-12-28T01:20:16;1.33;;;0.75;;
23466;SDS011;59740;47.696;11.746;2023-12-28T01:22:44;1.83;;;0.88;;
23466;SDS011;59740;47.696;11.746;2023-12-28T01:25:13;2.05;;;1.00;;
23466;SDS011;59740;47.696;11.746;2023-12-28T01:27:41;1.42;;;0.60;;
23466;SDS011;59740;47.696;11.746;2023-12-28T01:30:10;1.90;;;0.90;;
23466;SDS011;59740;47.696;11.746;2023-12-28T01:32:40;2.25;;;0.80;;
23466;SDS011;59740;47.696;11.746;2023-12-28T01:35:08;1.13;;;0.70;;
23466;SDS011;59740;47.696;11.746;2023-12-28T01:37:37;1.92;;;0.82;;
23466;SDS011;59740;47.696;11.746;2023-12-28T01:40:05;2.63;;;0.95;;
23466;SDS011;59740;47.696;11.746;2023-12-28T01:42:35;1.63;;;0.90;;
23466;SDS011;59740;47.696;11.746;2023-12-28T01:45:04;2.05;;;0.90;;
23466;SDS011;59740;47.696;11.746;2023-12-28T01:47:33;1.20;;;0.63;;
23466;SDS011;59740;47.696;11.746;2023-12-28T01:50:04;2.20;;;0.80;;
23466;SDS011;59740;47.696;11.746;2023-12-28T01:52:34;1.67;;;0.88;;
23466;SDS011;59740;47.696;11.746;2023-12-28T01:55:03;1.73;;;0.75;;
23466;SDS011;59740;47.696;11.746;2023-12-28T01:57:33;1.73;;;0.80;;
23466;SDS011;59740;47.696;11.746;2023-12-28T02:00:02;2.65;;;0.70;;
23466;SDS011;59740;47.696;11.746;2023-12-28T02:02:38;1.75;;;0.70;;
23466;SDS011;59740;47.696;11.746;2023-12-28T02:05:09;1.80;;;0.70;;
23466;SDS011;59740;47.696;11.746;2023-12-28T02:07:39;1.20;;;0.60;;
23466;SDS011;59740;47.696;11.746;2023-12-28T02:10:09;0.77;;;0.50;;
23466;SDS011;59740;47.696;11.746;2023-12-28T02:12:37;1.58;;;0.60;;
23466;SDS011;59740;47.696;11.746;2023-12-28T02:15:06;3.30;;;0.88;;
23466;SDS011;59740;47.696;11.746;2023-12-28T02:17:36;1.95;;;0.77;;
23466;SDS011;59740;47.696;11.746;2023-12-28T02:20:10;1.48;;;0.70;;
23466;SDS011;59740;47.696;11.746;2023-12-28T02:22:40;1.48;;;0.70;;
23466;SDS011;59740;47.696;11.746;2023-12-28T02:25:11;1.15;;;0.60;;
23466;SDS011;59740;47.696;11.746;2023-12-28T02:27:40;1.80;;;0.60;;
23466;SDS011;59740;47.696;11.746;2023-12-28T02:30:10;2.17;;;0.60;;
23466;SDS011;59740;47.696;11.746;2023-12-28T02:32:42;1.85;;;0.80;;
23466;SDS011;59740;47.696;11.746;2023-12-28T02:35:17;1.50;;;0.65;;
23466;SDS011;59740;47.696;11.746;2023-12-28T02:37:51;2.10;;;0.77;;
23466;SDS011;59740;47.696;11.746;2023-12-28T02:40:24;1.08;;;0.57;;
23466;SDS011;59740;47.696;11.746;2023-12-28T02:42:54;1.30;;;0.70;;
23466;SDS011;59740;47.696;11.746;2023-12-28T02:45:22;1.42;;;0.60;;
23466;SDS011;59740;47.696;11.746;2023-12-28T02:47:51;1.00;;;0.50;;
23466;SDS011;59740;47.696;11.746;2023-12-28T02:50:19;1.38;;;0.60;;
23466;SDS011;59740;47.696;11.746;2023-12-28T02:52:48;1.95;;;0.60;;
23466;SDS011;59740;47.696;11.746;2023-12-28T02:55:16;0.70;;;0.50;;
23466;SDS011;59740;47.696;11.746;2023-12-28T02:57:46;1.00;;;0.60;;
23466;SDS011;59740;47.696;11.746;2023-12-28T03:00:14;1.65;;;0.70;;
23466;SDS011;59740;47.696;11.746;2023-12-28T03:02:43;1.25;;;0.68;;
23466;SDS011;59740;47.696;11.746;2023-12-28T03:05:12;1.55;;;0.50;;
23466;SDS011;59740;47.696;11.746;2023-12-28T03:07:40;1.50;;;0.70;;
23466;SDS011;59740;47.696;11.746;2023-12-28T03:10:10;0.70;;;0.50;;
23466;SDS011;59740;47.696;11.746;2023-12-28T03:12:40;1.10;;;0.60;;
23466;SDS011;59740;47.696;11.746;2023-12-28T03:15:10;0.60;;;0.43;;
23466;SDS011;59740;47.696;11.746;2023-12-28T03:17:40;1.52;;;0.50;;
23466;SDS011;59740;47.696;11.746;2023-12-28T03:20:09;2.15;;;0.70;;
23466;SDS011;59740;47.696;11.746;2023-12-28T03:22:38;1.20;;;0.52;;
23466;SDS011;59740;47.696;11.746;2023-12-28T03:25:08;1.02;;;0.50;;
23466;SDS011;59740;47.696;11.746;2023-12-28T03:27:36;1.00;;;0.60;;
23466;SDS011;59740;47.696;11.746;2023-12-28T03:30:05;0.95;;;0.50;;
23466;SDS011;59740;47.696;11.746;2023-12-28T03:32:36;1.25;;;0.50;;
23466;SDS011;59740;47.696;11.746;2023-12-28T03:35:05;1.15;;;0.50;;
23466;SDS011;59740;47.696;11.746;2023-12-28T03:37:34;1.75;;;0.57;;
23466;SDS011;59740;47.696;11.746;2023-12-28T03:40:02;1.20;;;0.60;;
23466;SDS011;59740;47.696;11.746;2023-12-28T03:42:31;1.17;;;0.55;;
23466;SDS011;59740;47.696;11.746;2023-12-28T03:45:00;1.15;;;0.57;;
23466;SDS011;59740;47.696;11.746;2023-12-28T03:47:28;1.00;;;0.70;;
23466;SDS011;59740;47.696;11.746;2023-12-28T03:49:58;1.02;;;0.52;;
23466;SDS011;59740;47.696;11.746;2023-12-28T03:52:27;0.80;;;0.50;;
23466;SDS011;59740;47.696;11.746;2023-12-28T03:54:56;1.27;;;0.68;;
23466;SDS011;59740;47.696;11.746;2023-12-28T03:57:25;0.82;;;0.43;;
23466;SDS011;59740;47.696;11.746;2023-12-28T03:59:54;0.98;;;0.50;;
23466;SDS011;59740;47.696;11.746;2023-12-28T04:02:23;1.67;;;0.60;;
23466;SDS011;59740;47.696;11.746;2023-12-28T04:04:54;0.93;;;0.47;;
23466;SDS011;59740;47.696;11.746;2023-12-28T04:07:26;1.05;;;0.50;;
23466;SDS011;59740;47.696;11.746;2023-12-28T04:09:54;0.93;;;0.45;;
23466;SDS011;59740;47.696;11.746;2023-12-28T04:12:23;1.23;;;0.52;;
23466;SDS011;59740;47.696;11.746;2023-12-28T04:14:51;1.08;;;0.55;;
23466;SDS011;59740;47.696;11.746;2023-12-28T04:17:20;1.17;;;0.55;;
23466;SDS011;59740;47.696;11.746;2023-12-28T04:19:48;1.77;;;0.60;;
23466;SDS011;59740;47.696;11.746;2023-12-28T04:22:17;1.20;;;0.52;;
23466;SDS011;59740;47.696;11.746;2023-12-28T04:24:47;1.60;;;0.60;;
23466;SDS011;59740;47.696;11.746;2023-12-28T04:27:16;0.82;;;0.50;;
23466;SDS011;59740;47.696;11.746;2023-12-28T04:29:46;1.08;;;0.60;;
23466;SDS011;59740;47.696;11.746;2023-12-28T04:32:15;0.88;;;0.40;;
23466;SDS011;59740;47.696;11.746;2023-12-28T04:34:44;2.33;;;1.20;;
23466;SDS011;59740;47.696;11.746;2023-12-28T04:37:12;1.00;;;0.50;;
23466;SDS011;59740;47.696;11.746;2023-12-28T04:39:41;1.33;;;0.60;;
23466;SDS011;59740;47.696;11.746;2023-12-28T04:42:10;1.45;;;0.68;;
23466;SDS011;59740;47.696;11.746;2023-12-28T04:44:39;0.90;;;0.50;;
23466;SDS011;59740;47.696;11.746;2023-12-28T04:47:07;1.90;;;0.80;;
23466;SDS011;59740;47.696;11.746;2023-12-28T04:49:36;0.98;;;0.50;;
23466;SDS011;59740;47.696;11.746;2023-12-28T04:52:05;1.58;;;0.60;;
23466;SDS011;59740;47.696;11.746;2023-12-28T04:54:33;3.15;;;0.50;;
23466;SDS011;59740;47.696;11.746;2023-12-28T04:57:03;1.02;;;0.40;;
23466;SDS011;59740;47.696;11.746;2023-12-28T04:59:33;1.58;;;0.60;;
23466;SDS011;59740;47.696;11.746;2023-12-28T05:02:01;1.35;;;0.70;;
23466;SDS011;59740;47.696;11.746;2023-12-28T05:04:30;1.80;;;0.70;;
23466;SDS011;59740;47.696;11.746;2023-12-28T05:06:58;1.05;;;0.52;;
23466;SDS011;59740;47.696;11.746;2023-12-28T05:09:27;1.13;;;0.60;;
23466;SDS011;59740;47.696;11.746;2023-12-28T05:11:55;1.05;;;0.50;;
23466;SDS011;59740;47.696;11.746;2023-12-28T05:14:24;1.15;;;0.57;;
23466;SDS011;59740;47.696;11.746;2023-12-28T05:16:54;1.27;;;0.57;;
23466;SDS011;59740;47.696;11.746;2023-12-28T05:19:22;2.10;;;0.70;;
23466;SDS011;59740;47.696;11.746;2023-12-28T05:21:51;0.50;;;0.40;;
23466;SDS011;59740;47.696;11.746;2023-12-28T05:24:19;0.98;;;0.50;;
23466;SDS011;59740;47.696;11.746;2023-12-28T05:26:48;1.50;;;0.70;;
23466;SDS011;59740;47.696;11.746;2023-12-28T05:29:16;1.50;;;0.50;;
23466;SDS011;59740;47.696;11.746;2023-12-28T05:31:45;1.30;;;0.57;;
23466;SDS011;59740;47.696;11.746;2023-12-28T05:34:15;11.38;;;6.95;;
23466;SDS011;59740;47.696;11.746;2023-12-28T05:36:43;9.25;;;5.70;;
23466;SDS011;59740;47.696;11.746;2023-12-28T05:39:12;3.80;;;1.92;;
23466;SDS011;59740;47.696;11.746;2023-12-28T05:41:41;2.85;;;1.23;;
23466;SDS011;59740;47.696;11.746;2023-12-28T05:44:09;1.85;;;1.02;;
23466;SDS011;59740;47.696;11.746;2023-12-28T05:46:38;2.13;;;0.93;;
23466;SDS011;59740;47.696;11.746;2023-12-28T05:49:06;0.80;;;0.52;;
23466;SDS011;59740;47.696;11.746;2023-12-28T05:51:39;1.58;;;0.85;;
23466;SDS011;59740;47.696;11.746;2023-12-28T05:54:08;1.55;;;0.63;;
23466;SDS011;59740;47.696;11.746;2023-12-28T05:56:36;1.00;;;0.55;;
23466;SDS011;59740;47.696;11.746;2023-12-28T05:59:05;1.55;;;0.60;;
23466;SDS011;59740;47.696;11.746;2023-12-28T06:01:40;0.82;;;0.50;;
23466;SDS011;59740;47.696;11.746;2023-12-28T06:04:09;2.00;;;0.60;;
23466;SDS011;59740;47.696;11.746;2023-12-28T06:06:40;1.00;;;0.57;;
23466;SDS011;59740;47.696;11.746;2023-12-28T06:09:09;1.38;;;0.60;;
23466;SDS011;59740;47.696;11.746;2023-12-28T06:11:38;1.67;;;0.95;;
23466;SDS011;59740;47.696;11.746;2023-12-28T06:14:06;1.55;;;0.80;;
23466;SDS011;59740;47.696;11.746;2023-12-28T06:16:35;0.98;;;0.57;;
23466;SDS011;59740;47.696;11.746;2023-12-28T06:19:04;1.00;;;0.60;;
23466;SDS011;59740;47.696;11.746;2023-12-28T06:21:33;1.02;;;0.60;;
23466;SDS011;59740;47.696;11.746;2023-12-28T06:24:03;2.47;;;0.75;;
23466;SDS011;59740;47.696;11.746;2023-12-28T06:26:32;1.08;;;0.50;;
23466;SDS011;59740;47.696;11.746;2023-12-28T06:29:01;1.33;;;0.50;;
23466;SDS011;59740;47.696;11.746;2023-12-28T06:31:29;1.40;;;0.60;;
23466;SDS011;59740;47.696;11.746;2023-12-28T06:34:00;1.20;;;0.60;;
23466;SDS011;59740;47.696;11.746;2023-12-28T06:36:29;0.98;;;0.50;;
23466;SDS011;59740;47.696;11.746;2023-12-28T06:38:58;0.80;;;0.45;;
23466;SDS011;59740;47.696;11.746;2023-12-28T06:41:27;1.17;;;0.68;;
23466;SDS011;59740;47.696;11.746;2023-12-28T06:43:56;0.65;;;0.40;;
23466;SDS011;59740;47.696;11.746;2023-12-28T06:46:24;1.00;;;0.57;;
23466;SDS011;59740;47.696;11.746;2023-12-28T06:48:53;1.00;;;0.60;;
23466;SDS011;59740;47.696;11.746;2023-12-28T06:51:21;1.25;;;0.70;;
23466;SDS011;59740;47.696;11.746;2023-12-28T06:53:50;1.48;;;0.80;;
23466;SDS011;59740;47.696;11.746;2023-12-28T06:56:19;1.25;;;0.70;;
23466;SDS011;59740;47.696;11.746;2023-12-28T06:58:48;6.30;;;3.88;;
23466;SDS011;59740;47.696;11.746;2023-12-28T07:01:17;4.00;;;2.47;;
23466;SDS011;59740;47.696;11.746;2023-12-28T07:03:46;2.00;;;1.20;;
23466;SDS011;59740;47.696;11.746;2023-12-28T07:06:14;2.75;;;1.27;;
23466;SDS011;59740;47.696;11.746;2023-12-28T07:08:43;1.67;;;0.98;;
23466;SDS011;59740;47.696;11.746;2023-12-28T07:11:11;1.65;;;0.90;;
23466;SDS011;59740;47.696;11.746;2023-12-28T07:13:40;1.10;;;0.70;;
23466;SDS011;59740;47.696;11.746;2023-12-28T07:16:10;1.90;;;0.85;;
23466;SDS011;59740;47.696;11.746;2023-12-28T07:18:38;1.90;;;1.05;;
23466;SDS011;59740;47.696;11.746;2023-12-28T07:21:07;2.05;;;0.88;;
23466;SDS011;59740;47.696;11.746;2023-12-28T07:23:37;2.08;;;1.00;;
23466;SDS011;59740;47.696;11.746;2023-12-28T07:26:05;3.13;;;1.10;;
23466;SDS011;59740;47.696;11.746;2023-12-28T07:28:34;2.42;;;0.93;;
23466;SDS011;59740;47.696;11.746;2023-12-28T07:31:02;2.00;;;0.90;;
23466;SDS011;59740;47.696;11.746;2023-12-28T07:33:33;4.10;;;1.02;;
23466;SDS011;59740;47.696;11.746;2023-12-28T07:36:01;2.35;;;1.00;;
23466;SDS011;59740;47.696;11.746;2023-12-28T07:38:30;1.90;;;0.90;;
23466;SDS011;59740;47.696;11.746;2023-12-28T07:40:58;2.35;;;1.10;;
23466;SDS011;59740;47.696;11.746;2023-12-28T07:43:27;1.98;;;0.82;;
23466;SDS011;59740;47.696;11.746;2023-12-28T07:45:56;2.13;;;0.98;;
23466;SDS011;59740;47.696;11.746;2023-12-28T07:48:25;1.55;;;0.85;;
23466;SDS011;59740;47.696;11.746;2023-12-28T07:50:54;2.30;;;1.10;;
23466;SDS011;59740;47.696;11.746;2023-12-28T07:53:23;7.93;;;5.43;;
23466;SDS011;59740;47.696;11.746;2023-12-28T07:55:51;4.40;;;2.30;;
23466;SDS011;59740;47.696;11.746;2023-12-28T07:58:20;2.25;;;1.25;;
23466;SDS011;59740;47.696;11.746;2023-12-28T08:00:48;2.75;;;1.23;;
23466;SDS011;59740;47.696;11.746;2023-12-28T08:03:18;2.30;;;1.10;;
23466;SDS011;59740;47.696;11.746;2023-12-28T08:05:47;1.27;;;0.75;;
23466;SDS011;59740;47.696;11.746;2023-12-28T08:08:17;2.25;;;0.90;;
23466;SDS011;59740;47.696;11.746;2023-12-28T08:10:46;2.40;;;1.10;;
23466;SDS011;59740;47.696;11.746;2023-12-28T08:13:14;2.95;;;1.52;;
23466;SDS011;59740;47.696;11.746;2023-12-28T08:15:46;3.40;;;1.48;;
23466;SDS011;59740;47.696;11.746;2023-12-28T08:18:15;3.17;;;1.42;;
23466;SDS011;59740;47.696;11.746;2023-12-28T08:20:44;2.92;;;1.40;;
23466;SDS011;59740;47.696;11.746;2023-12-28T08:23:12;2.25;;;1.10;;
23466;SDS011;59740;47.696;11.746;2023-12-28T08:25:46;1.98;;;0.90;;
23466;SDS011;59740;47.696;11.746;2023-12-28T08:28:14;1.98;;;0.90;;
23466;SDS011;59740;47.696;11.746;2023-12-28T08:30:43;2.45;;;1.00;;
23466;SDS011;59740;47.696;11.746;2023-12-28T08:33:12;2.60;;;1.17;;
23466;SDS011;59740;47.696;11.746;2023-12-28T08:35:41;3.85;;;1.13;;
23466;SDS011;59740;47.696;11.746;2023-12-28T08:38:09;3.45;;;1.20;;
23466;SDS011;59740;47.696;11.746;2023-12-28T08:40:38;3.05;;;1.15;;
23466;SDS011;59740;47.696;11.746;2023-12-28T08:43:08;3.55;;;1.00;;
23466;SDS011;59740;47.696;11.746;2023-12-28T08:45:36;2.60;;;1.00;;
23466;SDS011;59740;47.696;11.746;2023-12-28T08:48:05;3.78;;;1.15;;
23466;SDS011;59740;47.696;11.746;2023-12-28T08:50:34;5.68;;;1.00;;
23466;SDS011;59740;47.696;11.746;2023-12-28T08:53:03;2.38;;;0.80;;
23466;SDS011;59740;47.696;11.746;2023-12-28T08:55:31;5.57;;;1.15;;
23466;SDS011;59740;47.696;11.746;2023-12-28T08:58:00;2.17;;;1.00;;
23466;SDS011;59740;47.696;11.746;2023-12-28T09:00:31;2.10;;;0.90;;
23466;SDS011;59740;47.696;11.746;2023-12-28T09:02:59;4.13;;;0.98;;
23466;SDS011;59740;47.696;11.746;2023-12-28T09:05:28;1.98;;;0.90;;
23466;SDS011;59740;47.696;11.746;2023-12-28T09:07:56;3.92;;;0.82;;
23466;SDS011;59740;47.696;11.746;2023-12-28T09:10:26;3.88;;;1.10;;
23466;SDS011;59740;47.696;11.746;2023-12-28T09:12:54;3.22;;;1.60;;
23466;SDS011;59740;47.696;11.746;2023-12-28T09:15:23;3.05;;;1.77;;
23466;SDS011;59740;47.696;11.746;2023-12-28T09:17:53;3.80;;;1.80;;
23466;SDS011;59740;47.696;11.746;2023-12-28T09:20:21;4.50;;;2.30;;
23466;SDS011;59740;47.696;11.746;2023-12-28T09:22:49;3.33;;;1.90;;
23466;SDS011;59740;47.696;11.746;2023-12-28T09:25:22;3.00;;;1.48;;
23466;SDS011;59740;47.696;11.746;2023-12-28T09:27:51;3.17;;;1.50;;
23466;SDS011;59740;47.696;11.746;2023-12-28T09:30:20;3.67;;;1.20;;
23466;SDS011;59740;47.696;11.746;2023-12-28T09:32:49;2.30;;;1.30;;
23466;SDS011;59740;47.696;11.746;2023-12-28T09:35:18;1.55;;;0.80;;
23466;SDS011;59740;47.696;11.746;2023-12-28T09:37:47;3.22;;;1.20;;
23466;SDS011;59740;47.696;11.746;2023-12-28T09:40:15;2.25;;;1.13;;
23466;SDS011;59740;47.696;11.746;2023-12-28T09:42:47;2.00;;;1.05;;
23466;SDS011;59740;47.696;11.746;2023-12-28T09:45:29;1.23;;;0.70;;
23466;SDS011;59740;47.696;11.746;2023-12-28T09:47:58;2.30;;;1.00;;
23466;SDS011;59740;47.696;11.746;2023-12-28T09:50:31;3.03;;;1.25;;
23466;SDS011;59740;47.696;11.746;2023-12-28T09:52:59;3.63;;;1.00;;
23466;SDS011;59740;47.696;11.746;2023-12-28T09:55:28;2.38;;;0.95;;
23466;SDS011;59740;47.696;11.746;2023-12-28T09:57:57;1.92;;;0.90;;
23466;SDS011;59740;47.696;11.746;2023-12-28T10:00:27;1.55;;;0.80;;
23466;SDS011;59740;47.696;11.746;2023-12-28T10:02:56;2.97;;;1.20;;
23466;SDS011;59740;47.696;11.746;2023-12-28T10:05:25;3.50;;;1.42;;
23466;SDS011;59740;47.696;11.746;2023-12-28T10:07:55;1.98;;;0.90;;
23466;SDS011;59740;47.696;11.746;2023-12-28T10:10:24;3.40;;;1.40;;
23466;SDS011;59740;47.696;11.746;2023-12-28T10:12:52;3.08;;;1.55;;
23466;SDS011;59740;47.696;11.746;2023-12-28T10:15:22;2.30;;;1.10;;
23466;SDS011;59740;47.696;11.746;2023-12-28T10:17:52;2.35;;;1.08;;
23466;SDS011;59740;47.696;11.746;2023-12-28T10:20:20;2.67;;;0.90;;
23466;SDS011;59740;47.696;11.746;2023-12-28T10:22:48;2.13;;;0.88;;
23466;SDS011;59740;47.696;11.746;2023-12-28T10:25:19;2.13;;;0.90;;
23466;SDS011;59740;47.696;11.746;2023-12-28T10:27:50;2.33;;;0.90;;
23466;SDS011;59740;47.696;11.746;2023-12-28T10:30:19;1.90;;;1.10;;
23466;SDS011;59740;47.696;11.746;2023-12-28T10:32:47;2.40;;;1.27;;
23466;SDS011;59740;47.696;11.746;2023-12-28T10:35:17;3.22;;;1.13;;
23466;SDS011;59740;47.696;11.746;2023-12-28T10:37:46;2.15;;;1.00;;
23466;SDS011;59740;47.696;11.746;2023-12-28T10:40:17;2.08;;;0.90;;
23466;SDS011;59740;47.696;11.746;2023-12-28T10:42:49;1.55;;;0.73;;
23466;SDS011;59740;47.696;11.746;2023-12-28T10:45:20;3.45;;;0.82;;
23466;SDS011;59740;47.696;11.746;2023-12-28T10:47:54;1.58;;;0.88;;
23466;SDS011;59740;47.696;11.746;2023-12-28T10:50:33;2.55;;;0.90;;
23466;SDS011;59740;47.696;11.746;2023-12-28T10:53:12;3.50;;;0.90;;
23466;SDS011;59740;47.696;11.746;2023-12-28T10:55:58;2.70;;;1.10;;
23466;SDS011;59740;47.696;11.746;2023-12-28T10:58:34;3.22;;;1.05;;
23466;SDS011;59740;47.696;11.746;2023-12-28T11:01:11;1.80;;;0.77;;
23466;SDS011;59740;47.696;11.746;2023-12-28T11:03:44;3.30;;;0.90;;
23466;SDS011;59740;47.696;11.746;2023-12-28T11:06:19;2.00;;;0.90;;
23466;SDS011;59740;47.696;11.746;2023-12-28T11:08:48;3.25;;;0.90;;
23466;SDS011;59740;47.696;11.746;2023-12-28T11:11:22;2.95;;;0.98;;
23466;SDS011;59740;47.696;11.746;2023-12-28T11:13:51;2.83;;;0.95;;
23466;SDS011;59740;47.696;11.746;2023-12-28T11:16:22;1.45;;;0.70;;
23466;SDS011;59740;47.696;11.746;2023-12-28T11:18:51;14.10;;;7.80;;
23466;SDS011;59740;47.696;11.746;2023-12-28T11:21:21;10.65;;;6.05;;
23466;SDS011;59740;47.696;11.746;2023-12-28T11:23:49;6.57;;;3.00;;
23466;SDS011;59740;47.696;11.746;2023-12-28T11:26:19;4.55;;;1.50;;
23466;SDS011;59740;47.696;11.746;2023-12-28T11:28:50;2.38;;;0.90;;
23466;SDS011;59740;47.696;11.746;2023-12-28T11:31:28;1.73;;;0.80;;
23466;SDS011;59740;47.696;11.746;2023-12-28T11:34:00;1.58;;;0.90;;
23466;SDS011;59740;47.696;11.746;2023-12-28T11:36:35;3.95;;;1.00;;
23466;SDS011;59740;47.696;11.746;2023-12-28T11:39:06;3.70;;;1.27;;
23466;SDS011;59740;47.696;11.746;2023-12-28T11:41:35;2.90;;;1.17;;
23466;SDS011;59740;47.696;11.746;2023-12-28T11:44:05;5.15;;;1.33;;
23466;SDS011;59740;47.696;11.746;2023-12-28T11:46:35;20.83;;;15.80;;
23466;SDS011;59740;47.696;11.746;2023-12-28T11:49:04;26.98;;;18.23;;
23466;SDS011;59740;47.696;11.746;2023-12-28T11:51:34;10.57;;;5.35;;
23466;SDS011;59740;47.696;11.746;2023-12-28T11:54:04;4.72;;;2.35;;
23466;SDS011;59740;47.696;11.746;2023-12-28T11:56:34;5.05;;;1.48;;
23466;SDS011;59740;47.696;11.746;2023-12-28T11:59:03;3.85;;;1.10;;
23466;SDS011;59740;47.696;11.746;2023-12-28T12:01:35;3.60;;;1.27;;
23466;SDS011;59740;47.696;11.746;2023-12-28T12:04:03;3.25;;;1.40;;
23466;SDS011;59740;47.696;11.746;2023-12-28T12:06:34;2.45;;;1.20;;
23466;SDS011;59740;47.696;11.746;2023-12-28T12:09:03;2.88;;;1.13;;
23466;SDS011;59740;47.696;11.746;2023-12-28T12:11:31;1.98;;;1.00;;
23466;SDS011;59740;47.696;11.746;2023-12-28T12:14:00;2.40;;;1.10;;
23466;SDS011;59740;47.696;11.746;2023-12-28T12:16:30;2.90;;;1.00;;
23466;SDS011;59740;47.696;11.746;2023-12-28T12:18:59;1.83;;;1.00;;
23466;SDS011;59740;47.696;11.746;2023-12-28T12:21:28;3.30;;;1.10;;
23466;SDS011;59740;47.696;11.746;2023-12-28T12:23:56;2.17;;;1.08;;
23466;SDS011;59740;47.696;11.746;2023-12-28T12:26:25;2.10;;;1.05;;
23466;SDS011;59740;47.696;11.746;2023-12-28T12:28:53;3.10;;;1.33;;
23466;SDS011;59740;47.696;11.746;2023-12-28T12:31:22;4.82;;;2.13;;
23466;SDS011;59740;47.696;11.746;2023-12-28T12:33:52;7.70;;;3.30;;
23466;SDS011;59740;47.696;11.746;2023-12-28T12:36:21;8.75;;;3.95;;
23466;SDS011;59740;47.696;11.746;2023-12-28T12:38:50;4.85;;;1.77;;
23466;SDS011;59740;47.696;11.746;2023-12-28T12:41:18;2.42;;;1.25;;
23466;SDS011;59740;47.696;11.746;2023-12-28T12:43:47;2.50;;;1.30;;
23466;SDS011;59740;47.696;11.746;2023-12-28T12:46:15;5.10;;;1.10;;
23466;SDS011;59740;47.696;11.746;2023-12-28T12:48:55;3.45;;;1.33;;
23466;SDS011;59740;47.696;11.746;2023-12-28T12:51:24;3.33;;;1.17;;
23466;SDS011;59740;47.696;11.746;2023-12-28T12:53:55;4.28;;;1.83;;
23466;SDS011;59740;47.696;11.746;2023-12-28T12:56:25;4.07;;;2.22;;
23466;SDS011;59740;47.696;11.746;2023-12-28T12:58:53;5.82;;;1.95;;
23466;SDS011;59740;47.696;11.746;2023-12-28T13:01:22;4.32;;;2.17;;
23466;SDS011;59740;47.696;11.746;2023-12-28T13:03:51;4.40;;;1.73;;
23466;SDS011;59740;47.696;11.746;2023-12-28T13:06:21;7.22;;;1.70;;
23466;SDS011;59740;47.696;11.746;2023-12-28T13:08:50;4.30;;;1.67;;
23466;SDS011;59740;47.696;11.746;2023-12-28T13:11:19;15.55;;;9.05;;
23466;SDS011;59740;47.696;11.746;2023-12-28T13:13:52;12.75;;;8.00;;
23466;SDS011;59740;47.696;11.746;2023-12-28T13:16:20;6.60;;;3.88;;
23466;SDS011;59740;47.696;11.746;2023-12-28T13:18:49;4.47;;;2.72;;
23466;SDS011;59740;47.696;11.746;2023-12-28T13:21:18;6.20;;;3.45;;
23466;SDS011;59740;47.696;11.746;2023-12-28T13:23:48;5.63;;;3.10;;
23466;SDS011;59740;47.696;11.746;2023-12-28T13:26:16;8.25;;;3.10;;
23466;SDS011;59740;47.696;11.746;2023-12-28T13:28:45;7.57;;;5.00;;
23466;SDS011;59740;47.696;11.746;2023-12-28T13:31:13;6.93;;;4.25;;
23466;SDS011;59740;47.696;11.746;2023-12-28T13:33:42;9.68;;;5.63;;
23466;SDS011;59740;47.696;11.746;2023-12-28T13:36:10;10.25;;;5.80;;
23466;SDS011;59740;47.696;11.746;2023-12-28T13:38:40;7.45;;;4.15;;
23466;SDS011;59740;47.696;11.746;2023-12-28T13:41:10;9.95;;;3.80;;
23466;SDS011;59740;47.696;11.746;2023-12-28T13:43:39;7.95;;;3.70;;
23466;SDS011;59740;47.696;11.746;2023-12-28T13:46:07;8.68;;;3.85;;
23466;SDS011;59740;47.696;11.746;2023-12-28T13:48:36;7.50;;;3.50;;
23466;SDS011;59740;47.696;11.746;2023-12-28T13:51:06;5.43;;;2.80;;
23466;SDS011;59740;47.696;11.746;2023-12-28T13:53:34;6.95;;;3.75;;
23466;SDS011;59740;47.696;11.746;2023-12-28T13:56:07;7.15;;;4.78;;
23466;SDS011;59740;47.696;11.746;2023-12-28T13:58:37;6.63;;;3.88;;
23466;SDS011;59740;47.696;11.746;2023-12-28T14:01:06;6.25;;;2.72;;
23466;SDS011;59740;47.696;11.746;2023-12-28T14:03:34;4.80;;;2.80;;
23466;SDS011;59740;47.696;11.746;2023-12-28T14:06:03;5.18;;;3.25;;
23466;SDS011;59740;47.696;11.746;2023-12-28T14:08:32;7.65;;;4.28;;
23466;SDS011;59740;47.696;11.746;2023-12-28T14:11:00;7.88;;;3.60;;
23466;SDS011;59740;47.696;11.746;2023-12-28T14:13:31;5.90;;;3.90;;
23466;SDS011;59740;47.696;11.746;2023-12-28T14:16:03;5.82;;;2.90;;
23466;SDS011;59740;47.696;11.746;2023-12-28T14:18:32;6.18;;;3.38;;
23466;SDS011;59740;47.696;11.746;2023-12-28T14:21:01;5.72;;;3.25;;
23466;SDS011;59740;47.696;11.746;2023-12-28T14:23:30;5.93;;;3.30;;
23466;SDS011;59740;47.696;11.746;2023-12-28T14:25:59;6.25;;;3.00;;
23466;SDS011;59740;47.696;11.746;2023-12-28T14:28:30;5.13;;;3.13;;
23466;SDS011;59740;47.696;11.746;2023-12-28T14:31:00;5.20;;;2.50;;
23466;SDS011;59740;47.696;11.746;2023-12-28T14:33:31;5.10;;;2.40;;
23466;SDS011;59740;47.696;11.746;2023-12-28T14:36:00;5.65;;;2.38;;
23466;SDS011;59740;47.696;11.746;2023-12-28T14:38:30;5.60;;;3.03;;
23466;SDS011;59740;47.696;11.746;2023-12-28T14:40:58;4.85;;;2.85;;
23466;SDS011;59740;47.696;11.746;2023-12-28T14:43:27;7.30;;;3.45;;
23466;SDS011;59740;47.696;11.746;2023-12-28T14:45:55;6.13;;;3.35;;